createdAt,value
2022-11-07T00:00:33.230Z,1.88
2022-11-07T00:03:02.237Z,1.79
2022-11-07T00:05:31.022Z,1.63
2022-11-07T00:08:00.023Z,1.68
2022-11-07T00:10:29.012Z,1.67
2022-11-07T00:12:57.758Z,1.61
2022-11-07T00:15:26.469Z,1.40
2022-11-07T00:17:55.208Z,1.47
2022-11-07T00:20:24.023Z,1.48
2022-11-07T00:22:52.817Z,1.34
2022-11-07T00:25:21.630Z,1.47
2022-11-07T00:27:50.337Z,1.42
2022-11-07T00:30:19.743Z,1.42
2022-11-07T00:32:48.529Z,1.37
2022-11-07T00:35:17.253Z,1.32
2022-11-07T00:37:46.078Z,1.29
2022-11-07T00:40:14.874Z,1.35
2022-11-07T00:42:43.653Z,1.38
2022-11-07T00:45:12.553Z,1.43
2022-11-07T00:47:41.354Z,1.48
2022-11-07T00:50:10.462Z,1.54
2022-11-07T00:52:39.165Z,1.49
2022-11-07T00:55:08.366Z,1.59
2022-11-07T00:57:37.082Z,1.61
2022-11-07T01:00:07.406Z,1.67
2022-11-07T01:02:36.627Z,1.64
2022-11-07T01:05:11.528Z,1.71
2022-11-07T01:07:41.046Z,1.74
2022-11-07T01:10:09.960Z,1.72
2022-11-07T01:12:38.742Z,1.73
2022-11-07T01:15:07.887Z,1.73
2022-11-07T01:17:36.706Z,1.73
2022-11-07T01:20:06.217Z,1.67
2022-11-07T01:22:35.008Z,1.62
2022-11-07T01:25:03.978Z,1.63
2022-11-07T01:27:32.905Z,1.68
2022-11-07T01:30:01.653Z,1.67
2022-11-07T01:32:32.363Z,1.61
2022-11-07T01:35:01.196Z,1.60
2022-11-07T01:37:30.032Z,1.59
2022-11-07T01:39:58.833Z,1.58
2022-11-07T01:42:27.865Z,1.51
2022-11-07T01:44:59.723Z,1.52
2022-11-07T01:47:34.055Z,1.49
2022-11-07T01:50:04.644Z,1.54
2022-11-07T01:52:38.588Z,1.56
2022-11-07T01:55:18.626Z,1.58
2022-11-07T01:57:58.133Z,1.55
2022-11-07T02:00:29.168Z,1.57
2022-11-07T02:03:08.528Z,1.55
2022-11-07T02:05:55.802Z,1.57
2022-11-07T02:08:25.525Z,1.57
2022-11-07T02:10:55.135Z,1.55
2022-11-07T02:13:29.694Z,1.58
2022-11-07T02:16:04.084Z,1.64
2022-11-07T02:18:35.826Z,1.67
2022-11-07T02:21:17.213Z,1.67
2022-11-07T02:24:09.122Z,1.76
2022-11-07T02:26:40.385Z,1.79
2022-11-07T02:29:10.837Z,1.78
2022-11-07T02:31:39.705Z,1.85
2022-11-07T02:34:08.452Z,1.93
2022-11-07T02:36:37.305Z,1.98
2022-11-07T02:39:06.123Z,2.14
2022-11-07T02:41:36.176Z,2.29
2022-11-07T02:44:11.987Z,2.36
2022-11-07T02:46:41.240Z,2.49
2022-11-07T02:49:10.056Z,2.55
2022-11-07T02:51:38.829Z,2.59
2022-11-07T02:54:07.647Z,2.57
2022-11-07T02:56:36.356Z,2.52
2022-11-07T02:59:05.202Z,2.50
2022-11-07T03:01:35.082Z,2.46
2022-11-07T03:04:04.206Z,2.42
2022-11-07T03:06:33.135Z,2.38
2022-11-07T03:09:01.887Z,2.34
2022-11-07T03:11:30.597Z,2.28
2022-11-07T03:13:59.302Z,2.25
2022-11-07T03:16:28.439Z,2.23
2022-11-07T03:18:57.241Z,2.23
2022-11-07T03:21:26.071Z,2.27
2022-11-07T03:23:54.848Z,2.26
2022-11-07T03:26:23.581Z,2.45
2022-11-07T03:28:52.292Z,2.44
2022-11-07T03:31:21.072Z,2.38
2022-11-07T03:33:49.792Z,2.36
2022-11-07T03:36:18.605Z,2.36
2022-11-07T03:38:47.323Z,2.36
2022-11-07T03:41:17.938Z,2.29
2022-11-07T03:43:47.541Z,2.15
2022-11-07T03:46:17.459Z,2.10
2022-11-07T03:48:46.251Z,2.11
2022-11-07T03:51:14.977Z,2.35
2022-11-07T03:53:43.813Z,2.67
2022-11-07T03:56:13.348Z,2.64
2022-11-07T03:58:42.205Z,2.63
2022-11-07T04:01:12.371Z,2.80
2022-11-07T04:03:41.333Z,2.97
2022-11-07T04:06:10.408Z,3.08
2022-11-07T04:08:39.402Z,3.82
2022-11-07T04:11:08.135Z,6.54
2022-11-07T04:13:55.404Z,9.00
2022-11-07T04:16:42.529Z,11.02
2022-11-07T04:19:11.330Z,11.48
2022-11-07T04:21:40.122Z,10.75
2022-11-07T04:24:08.923Z,9.76
2022-11-07T04:26:56.104Z,10.01
2022-11-07T04:29:24.821Z,11.34
2022-11-07T04:31:53.585Z,11.65
2022-11-07T04:34:22.347Z,10.47
2022-11-07T04:36:51.403Z,8.95
2022-11-07T04:39:20.102Z,8.30
2022-11-07T04:41:48.980Z,8.94
2022-11-07T04:44:17.787Z,8.94
2022-11-07T04:46:46.536Z,8.35
2022-11-07T04:49:18.053Z,7.27
2022-11-07T04:51:46.870Z,7.00
2022-11-07T04:54:16.675Z,8.16
2022-11-07T04:56:45.460Z,8.85
2022-11-07T04:59:14.218Z,9.38
2022-11-07T05:01:43.990Z,10.78
2022-11-07T05:04:12.865Z,11.78
2022-11-07T05:06:43.007Z,11.48
2022-11-07T05:09:19.248Z,10.89
2022-11-07T05:11:48.823Z,10.14
2022-11-07T05:14:17.597Z,9.25
2022-11-07T05:16:46.366Z,9.12
2022-11-07T05:19:19.711Z,8.27
2022-11-07T05:21:48.747Z,7.53
2022-11-07T05:24:17.517Z,6.37
2022-11-07T05:26:46.236Z,5.40
2022-11-07T05:29:14.971Z,4.81
2022-11-07T05:31:43.837Z,4.36
2022-11-07T05:34:14.704Z,3.88
2022-11-07T05:36:43.606Z,3.64
2022-11-07T05:39:12.377Z,3.28
2022-11-07T05:41:41.142Z,3.10
2022-11-07T05:44:11.458Z,2.95
2022-11-07T05:46:40.205Z,2.84
2022-11-07T05:49:09.251Z,2.72
2022-11-07T05:51:38.099Z,2.72
2022-11-07T05:54:06.834Z,2.83
2022-11-07T05:56:37.902Z,3.21
2022-11-07T05:59:06.726Z,3.49
2022-11-07T06:01:36.346Z,3.47
2022-11-07T06:04:06.240Z,3.48
2022-11-07T06:06:35.443Z,3.58
2022-11-07T06:09:04.372Z,3.51
2022-11-07T06:11:33.727Z,3.40
2022-11-07T06:14:02.599Z,3.24
2022-11-07T06:16:31.458Z,3.00
2022-11-07T06:19:00.426Z,2.70
2022-11-07T06:21:29.210Z,2.44
2022-11-07T06:23:59.940Z,2.27
2022-11-07T06:26:28.761Z,2.18
2022-11-07T06:28:57.631Z,2.22
2022-11-07T06:31:26.500Z,2.33
2022-11-07T06:33:55.279Z,2.53
2022-11-07T06:36:24.055Z,2.64
2022-11-07T06:38:54.258Z,2.67
2022-11-07T06:41:25.066Z,2.59
2022-11-07T06:43:54.017Z,2.49
2022-11-07T06:46:23.889Z,2.37
2022-11-07T06:48:52.693Z,2.18
2022-11-07T06:51:21.888Z,2.05
2022-11-07T06:53:51.115Z,1.85
2022-11-07T06:56:19.906Z,1.67
2022-11-07T06:58:48.654Z,1.52
2022-11-07T07:01:18.586Z,1.43
2022-11-07T07:03:47.618Z,1.37
2022-11-07T07:06:17.815Z,1.28
2022-11-07T07:08:47.735Z,1.26
2022-11-07T07:11:17.199Z,1.27
2022-11-07T07:13:45.905Z,1.24
2022-11-07T07:16:14.687Z,1.24
2022-11-07T07:18:43.491Z,1.26
2022-11-07T07:21:14.721Z,1.23
2022-11-07T07:23:43.591Z,1.20
2022-11-07T07:26:17.419Z,1.25
2022-11-07T07:28:46.197Z,1.21
2022-11-07T07:31:14.928Z,1.17
2022-11-07T07:33:44.534Z,1.13
2022-11-07T07:36:20.277Z,1.20
2022-11-07T07:38:50.714Z,1.30
2022-11-07T07:41:20.070Z,1.20
2022-11-07T07:43:48.916Z,1.05
2022-11-07T07:46:23.089Z,0.98
2022-11-07T07:48:51.916Z,0.92
2022-11-07T07:51:20.656Z,0.90
2022-11-07T07:53:49.616Z,0.91
2022-11-07T07:56:18.493Z,0.91
2022-11-07T07:58:47.720Z,0.90
2022-11-07T08:01:17.458Z,0.94
2022-11-07T08:04:00.638Z,0.84
2022-11-07T08:06:31.123Z,0.71
2022-11-07T08:08:59.824Z,0.66
2022-11-07T08:11:29.387Z,0.65
2022-11-07T08:14:01.246Z,0.72
2022-11-07T08:16:30.805Z,1.06
2022-11-07T08:18:59.718Z,2.44
2022-11-07T08:21:28.674Z,3.80
2022-11-07T08:23:57.480Z,4.86
2022-11-07T08:26:26.719Z,5.29
2022-11-07T08:28:55.880Z,5.59
2022-11-07T08:31:24.776Z,5.58
2022-11-07T08:33:53.600Z,5.57
2022-11-07T08:36:22.544Z,5.69
2022-11-07T08:38:51.458Z,5.49
2022-11-07T08:41:22.427Z,5.16
2022-11-07T08:43:51.533Z,4.88
2022-11-07T08:46:20.446Z,4.47
2022-11-07T08:48:49.551Z,4.04
2022-11-07T08:51:18.565Z,3.58
2022-11-07T08:53:47.402Z,2.94
2022-11-07T08:56:16.521Z,2.18
2022-11-07T08:58:45.480Z,1.62
2022-11-07T09:01:15.304Z,1.00
2022-11-07T09:03:50.327Z,0.44
2022-11-07T09:06:23.715Z,0.01
2022-11-07T09:08:52.509Z,-0.39
2022-11-07T09:11:22.486Z,-0.52
2022-11-07T09:13:51.230Z,-0.68
2022-11-07T09:16:20.246Z,-0.84
2022-11-07T09:18:50.524Z,-1.03
2022-11-07T09:21:22.644Z,-1.20
2022-11-07T09:23:52.675Z,-1.30
2022-11-07T09:26:21.530Z,-1.40
2022-11-07T09:28:53.192Z,-1.50
2022-11-07T09:31:24.945Z,-1.59
2022-11-07T09:33:53.756Z,-1.70
2022-11-07T09:36:24.675Z,-1.77
2022-11-07T09:38:56.703Z,-1.79
2022-11-07T09:41:31.368Z,-1.77
2022-11-07T09:44:31.661Z,-1.77
2022-11-07T09:47:24.124Z,-1.71
2022-11-07T09:50:00.337Z,-1.70
2022-11-07T09:52:39.116Z,-1.61
2022-11-07T09:55:31.933Z,-1.57
2022-11-07T09:58:10.912Z,-1.55
2022-11-07T10:00:41.936Z,-1.52
2022-11-07T10:03:11.637Z,-1.51
2022-11-07T10:06:03.283Z,-1.54
2022-11-07T10:08:40.072Z,-1.59
2022-11-07T10:11:36.562Z,-1.68
2022-11-07T10:14:07.986Z,-1.65
2022-11-07T10:17:13.939Z,-1.68
2022-11-07T10:20:08.008Z,-1.67
2022-11-07T10:22:48.373Z,-1.66
2022-11-07T10:25:29.986Z,-1.64
2022-11-07T10:28:14.072Z,-1.64
2022-11-07T10:30:50.102Z,-1.65
2022-11-07T10:33:26.707Z,-1.66
2022-11-07T10:36:00.907Z,-1.64
2022-11-07T10:38:31.986Z,-1.61
2022-11-07T10:41:01.286Z,-1.71
2022-11-07T10:43:34.487Z,-1.60
2022-11-07T10:46:05.999Z,-1.62
2022-11-07T10:48:35.866Z,-1.66
2022-11-07T10:51:04.853Z,-1.70
2022-11-07T10:53:45.331Z,-1.81
2022-11-07T10:56:14.733Z,-1.84
2022-11-07T10:58:47.226Z,-1.89
2022-11-07T11:01:29.511Z,-1.95
2022-11-07T11:03:58.750Z,-2.01
2022-11-07T11:06:34.848Z,-2.01
2022-11-07T11:09:16.493Z,-1.91
2022-11-07T11:11:51.323Z,-2.03
2022-11-07T11:14:29.151Z,-1.85
2022-11-07T11:16:58.337Z,-2.07
2022-11-07T11:19:34.702Z,-1.91
2022-11-07T11:22:08.589Z,-1.92
2022-11-07T11:24:38.527Z,-1.91
2022-11-07T11:27:21.753Z,-1.93
2022-11-07T11:30:08.846Z,-1.97
2022-11-07T11:32:46.347Z,-2.00
2022-11-07T11:35:43.175Z,-2.05
2022-11-07T11:38:18.320Z,-2.16
2022-11-07T11:41:09.341Z,-2.16
2022-11-07T11:43:49.761Z,-2.36
2022-11-07T11:46:34.128Z,-2.35
2022-11-07T11:49:44.581Z,-2.46
2022-11-07T11:52:20.162Z,-2.58
2022-11-07T11:54:52.143Z,-2.67
2022-11-07T11:57:27.347Z,-2.72
2022-11-07T12:00:23.941Z,-2.78
2022-11-07T12:03:05.336Z,-2.85
2022-11-07T12:06:08.425Z,-2.93
2022-11-07T12:09:07.072Z,-3.00
2022-11-07T12:12:09.581Z,-3.08
2022-11-07T12:15:02.484Z,-3.18
2022-11-07T12:17:39.647Z,-3.19
2022-11-07T12:20:14.120Z,-3.23
2022-11-07T12:23:12.283Z,-3.24
2022-11-07T12:25:53.582Z,-3.25
2022-11-07T12:28:25.316Z,-3.26
2022-11-07T12:30:54.321Z,-3.27
2022-11-07T12:34:01.453Z,-3.24
2022-11-07T12:36:56.549Z,-3.16
2022-11-07T12:39:44.473Z,-3.07
2022-11-07T12:42:32.491Z,-3.07
2022-11-07T12:45:10.312Z,-2.94
2022-11-07T12:47:55.879Z,-2.97
2022-11-07T12:50:32.818Z,-3.03
2022-11-07T12:53:24.983Z,-3.11
2022-11-07T12:56:03.658Z,-3.20
2022-11-07T12:58:38.367Z,-3.29
2022-11-07T13:01:09.122Z,-3.32
2022-11-07T13:04:05.466Z,-3.36
2022-11-07T13:06:53.560Z,-3.40
2022-11-07T13:09:47.807Z,-3.37
2022-11-07T13:12:43.977Z,-3.37
2022-11-07T13:15:13.913Z,-3.44
2022-11-07T13:17:45.213Z,-3.42
2022-11-07T13:20:23.704Z,-3.37
2022-11-07T13:22:58.138Z,-3.38
2022-11-07T13:25:32.734Z,-3.43
2022-11-07T13:28:03.601Z,-3.45
2022-11-07T13:30:36.512Z,-3.46
2022-11-07T13:33:07.216Z,-3.48
2022-11-07T13:35:37.234Z,-3.52
2022-11-07T13:38:21.379Z,-3.60
2022-11-07T13:40:59.000Z,-3.70
2022-11-07T13:43:38.596Z,-3.64
2022-11-07T13:46:17.926Z,-3.64
2022-11-07T13:48:58.633Z,-3.67
2022-11-07T13:51:35.535Z,-3.68
2022-11-07T13:54:14.174Z,-3.62
2022-11-07T13:57:25.075Z,-3.46
2022-11-07T13:59:56.865Z,-3.34
2022-11-07T14:02:29.216Z,-3.30
2022-11-07T14:05:17.523Z,-3.33
2022-11-07T14:07:54.853Z,-3.40
2022-11-07T14:10:43.305Z,-3.30
2022-11-07T14:13:20.510Z,-3.42
2022-11-07T14:15:54.991Z,-3.54
2022-11-07T14:18:27.231Z,-3.67
2022-11-07T14:20:58.877Z,-3.68
2022-11-07T14:23:35.128Z,-3.74
2022-11-07T14:26:17.539Z,-3.81
2022-11-07T14:28:46.905Z,-3.93
2022-11-07T14:31:20.510Z,-4.01
2022-11-07T14:33:52.176Z,-4.07
2022-11-07T14:36:22.864Z,-4.13
2022-11-07T14:38:55.971Z,-4.29
2022-11-07T14:41:25.327Z,-4.24
2022-11-07T14:43:54.756Z,-4.24
2022-11-07T14:46:25.901Z,-4.28
2022-11-07T14:48:55.825Z,-4.35
2022-11-07T14:51:28.587Z,-4.37
2022-11-07T14:54:36.904Z,-4.43
2022-11-07T14:57:07.663Z,-4.46
2022-11-07T14:59:36.868Z,-4.48
2022-11-07T15:02:33.652Z,-4.51
2022-11-07T15:05:10.729Z,-4.57
2022-11-07T15:07:48.670Z,-4.56
2022-11-07T15:10:37.338Z,-4.56
2022-11-07T15:13:25.075Z,-4.60
2022-11-07T15:16:05.936Z,-4.58
2022-11-07T15:18:44.448Z,-4.47
2022-11-07T15:21:37.875Z,-4.42
2022-11-07T15:24:35.749Z,-4.41
2022-11-07T15:27:18.567Z,-4.33
2022-11-07T15:29:56.435Z,-4.24
2022-11-07T15:32:27.553Z,-4.22
2022-11-07T15:35:17.338Z,-4.19
2022-11-07T15:37:58.199Z,-4.16
2022-11-07T15:40:28.702Z,-4.12
2022-11-07T15:42:57.535Z,-4.04
2022-11-07T15:45:26.433Z,-3.96
2022-11-07T15:47:55.180Z,-3.84
2022-11-07T15:50:25.443Z,-3.87
2022-11-07T15:52:55.098Z,-3.81
2022-11-07T15:55:24.384Z,-3.81
2022-11-07T15:57:54.973Z,-3.83
2022-11-07T16:00:27.381Z,-3.91
2022-11-07T16:02:56.337Z,-3.85
2022-11-07T16:05:26.175Z,-3.88
2022-11-07T16:07:54.925Z,-3.98
2022-11-07T16:10:26.526Z,-4.09
2022-11-07T16:13:02.352Z,-4.26
2022-11-07T16:15:34.477Z,-4.31
2022-11-07T16:18:03.347Z,-4.42
2022-11-07T16:20:34.073Z,-4.48
2022-11-07T16:23:03.064Z,-4.55
2022-11-07T16:25:32.432Z,-4.59
2022-11-07T16:28:02.748Z,-4.66
2022-11-07T16:30:32.341Z,-4.70
2022-11-07T16:33:01.304Z,-4.72
2022-11-07T16:35:30.494Z,-4.78
2022-11-07T16:38:00.373Z,-4.78
2022-11-07T16:40:29.109Z,-4.84
2022-11-07T16:42:57.855Z,-4.92
2022-11-07T16:45:26.686Z,-4.89
2022-11-07T16:47:55.924Z,-5.10
2022-11-07T16:50:24.769Z,-5.04
2022-11-07T16:52:53.562Z,-5.04
2022-11-07T16:55:22.354Z,-5.08
2022-11-07T16:57:51.076Z,-5.14
2022-11-07T17:00:23.571Z,-5.12
2022-11-07T17:02:52.612Z,-5.11
2022-11-07T17:05:21.663Z,-5.16
2022-11-07T17:08:20.295Z,-5.14
2022-11-07T17:10:49.508Z,-5.17
2022-11-07T17:13:19.037Z,-5.18
2022-11-07T17:15:47.753Z,-5.27
2022-11-07T17:18:25.378Z,-5.26
2022-11-07T17:20:55.279Z,-5.34
2022-11-07T17:23:29.990Z,-5.32
2022-11-07T17:26:00.698Z,-5.29
2022-11-07T17:28:29.458Z,-5.31
2022-11-07T17:30:58.287Z,-5.32
2022-11-07T17:33:27.038Z,-5.31
2022-11-07T17:35:56.236Z,-5.37
2022-11-07T17:38:26.062Z,-5.37
2022-11-07T17:40:54.822Z,-5.40
2022-11-07T17:43:23.988Z,-5.43
2022-11-07T17:45:52.775Z,-5.44
2022-11-07T17:48:21.421Z,-5.43
2022-11-07T17:50:50.262Z,-5.31
2022-11-07T17:53:18.968Z,-5.29
2022-11-07T17:55:47.628Z,-5.25
2022-11-07T17:58:16.570Z,-5.32
2022-11-07T18:00:46.233Z,-5.29
2022-11-07T18:03:15.210Z,-5.21
2022-11-07T18:05:43.942Z,-5.13
2022-11-07T18:08:31.189Z,-5.03
2022-11-07T18:11:02.466Z,-4.92
2022-11-07T18:13:31.326Z,-4.81
2022-11-07T18:16:00.362Z,-4.74
2022-11-07T18:18:29.304Z,-4.72
2022-11-07T18:21:00.634Z,-4.65
2022-11-07T18:23:29.350Z,-4.57
2022-11-07T18:26:10.394Z,-4.50
2022-11-07T18:28:41.282Z,-4.43
2022-11-07T18:31:15.763Z,-4.36
2022-11-07T18:33:45.196Z,-4.30
2022-11-07T18:36:17.871Z,-4.26
2022-11-07T18:38:46.569Z,-4.23
2022-11-07T18:41:21.459Z,-4.13
2022-11-07T18:43:50.915Z,-4.12
2022-11-07T18:46:19.815Z,-4.08
2022-11-07T18:48:49.175Z,-4.04
2022-11-07T18:51:21.495Z,-4.02
2022-11-07T18:53:51.674Z,-4.00
2022-11-07T18:56:21.466Z,-3.99
2022-11-07T18:58:50.341Z,-3.96
2022-11-07T19:01:28.845Z,-3.95
2022-11-07T19:04:01.825Z,-3.93
2022-11-07T19:06:31.379Z,-3.91
2022-11-07T19:09:00.841Z,-3.90
2022-11-07T19:11:32.210Z,-3.92
2022-11-07T19:14:02.727Z,-3.96
2022-11-07T19:16:32.091Z,-3.86
2022-11-07T19:19:01.013Z,-3.85
2022-11-07T19:21:29.729Z,-3.86
2022-11-07T19:23:58.521Z,-3.80
2022-11-07T19:26:27.232Z,-3.83
2022-11-07T19:28:56.475Z,-3.76
2022-11-07T19:31:25.238Z,-3.75
2022-11-07T19:33:54.045Z,-3.73
2022-11-07T19:36:24.056Z,-3.73
2022-11-07T19:38:52.846Z,-3.68
2022-11-07T19:41:21.691Z,-3.69
2022-11-07T19:43:50.737Z,-3.70
2022-11-07T19:46:23.965Z,-3.68
2022-11-07T19:48:52.864Z,-3.70
2022-11-07T19:51:23.242Z,-3.76
2022-11-07T19:53:57.667Z,-3.74
2022-11-07T19:56:29.081Z,-3.71
2022-11-07T19:58:59.244Z,-3.72
2022-11-07T20:01:32.269Z,-3.76
2022-11-07T20:04:02.442Z,-3.69
2022-11-07T20:06:36.206Z,-3.72
2022-11-07T20:09:07.282Z,-3.69
2022-11-07T20:11:36.998Z,-3.69
2022-11-07T20:14:06.491Z,-3.70
2022-11-07T20:16:37.410Z,-3.69
2022-11-07T20:19:06.535Z,-3.67
2022-11-07T20:21:35.394Z,-3.74
2022-11-07T20:24:06.164Z,-3.67
2022-11-07T20:26:34.963Z,-3.67
2022-11-07T20:29:04.608Z,-3.66
2022-11-07T20:31:37.249Z,-3.68
2022-11-07T20:34:12.510Z,-3.70
2022-11-07T20:36:41.286Z,-3.72
2022-11-07T20:39:12.565Z,-3.73
2022-11-07T20:41:44.446Z,-3.76
2022-11-07T20:44:15.391Z,-3.89
2022-11-07T20:46:46.197Z,-3.76
2022-11-07T20:49:17.459Z,-3.78
2022-11-07T20:51:46.730Z,-3.76
2022-11-07T20:54:16.846Z,-3.75
2022-11-07T20:56:46.180Z,-3.76
2022-11-07T20:59:14.926Z,-3.77
2022-11-07T21:01:44.636Z,-3.78
2022-11-07T21:04:16.029Z,-3.69
2022-11-07T21:06:45.297Z,-3.70
2022-11-07T21:09:14.347Z,-3.69
2022-11-07T21:11:43.338Z,-3.64
2022-11-07T21:14:12.154Z,-3.62
2022-11-07T21:16:41.114Z,-3.61
2022-11-07T21:19:14.809Z,-3.68
2022-11-07T21:21:43.880Z,-3.64
2022-11-07T21:24:12.702Z,-3.71
2022-11-07T21:26:41.482Z,-3.68
2022-11-07T21:29:10.373Z,-3.69
2022-11-07T21:31:41.051Z,-3.71
2022-11-07T21:34:12.050Z,-3.66
2022-11-07T21:36:40.829Z,-3.65
2022-11-07T21:39:10.349Z,-3.61
2022-11-07T21:41:39.179Z,-3.62
2022-11-07T21:44:07.902Z,-3.65
2022-11-07T21:46:36.674Z,-3.65
2022-11-07T21:49:06.679Z,-3.71
2022-11-07T21:51:36.586Z,-3.65
2022-11-07T21:54:06.891Z,-3.75
2022-11-07T21:56:38.303Z,-3.83
2022-11-07T21:59:10.570Z,-3.95
2022-11-07T22:01:41.883Z,-4.08
2022-11-07T22:04:13.349Z,-4.21
2022-11-07T22:06:44.761Z,-4.33
2022-11-07T22:09:19.467Z,-4.37
2022-11-07T22:11:49.182Z,-4.35
2022-11-07T22:14:20.982Z,-4.31
2022-11-07T22:16:51.271Z,-4.29
2022-11-07T22:19:20.091Z,-4.30
2022-11-07T22:21:49.782Z,-4.26
2022-11-07T22:24:18.581Z,-4.25
2022-11-07T22:26:47.351Z,-4.25
2022-11-07T22:29:16.075Z,-4.20
2022-11-07T22:31:44.973Z,-4.15
2022-11-07T22:34:13.784Z,-4.13
2022-11-07T22:36:42.738Z,-4.14
2022-11-07T22:39:11.467Z,-4.17
2022-11-07T22:41:40.230Z,-4.21
2022-11-07T22:44:09.064Z,-4.29
2022-11-07T22:46:37.861Z,-4.33
2022-11-07T22:49:07.568Z,-4.40
2022-11-07T22:51:36.355Z,-4.37
2022-11-07T22:54:11.650Z,-4.39
2022-11-07T22:56:41.146Z,-4.34
2022-11-07T22:59:12.064Z,-4.36
2022-11-07T23:01:43.553Z,-4.37
2022-11-07T23:04:15.726Z,-4.37
2022-11-07T23:06:45.100Z,-4.35
2022-11-07T23:09:15.815Z,-4.50
2022-11-07T23:11:47.156Z,-4.39
2022-11-07T23:14:19.006Z,-4.42
2022-11-07T23:16:53.312Z,-4.46
2022-11-07T23:19:24.530Z,-4.47
2022-11-07T23:21:55.834Z,-4.49
2022-11-07T23:24:24.745Z,-4.51
2022-11-07T23:26:53.500Z,-4.51
2022-11-07T23:29:24.633Z,-4.52
2022-11-07T23:31:53.957Z,-4.49
2022-11-07T23:34:23.290Z,-4.51
2022-11-07T23:36:52.661Z,-4.49
2022-11-07T23:39:23.417Z,-4.45
2022-11-07T23:41:52.555Z,-4.51
2022-11-07T23:44:21.419Z,-4.49
2022-11-07T23:47:08.768Z,-4.51
2022-11-07T23:49:56.111Z,-4.52
2022-11-07T23:52:24.843Z,-4.52
2022-11-07T23:55:12.059Z,-4.51
2022-11-07T23:57:59.342Z,-4.53
